Latest Weather Observations for Dwellingup

IDW60801

Issued at 12:33 pm WST Sunday 28 May 2017 (issued every 30 minutes, with the page automatically refreshed every 10 minutes)

About weather observations | Map of weather stations | Latest weather observations for WA | Other Formats
Station Details ID: 009538 Name: DWELLINGUP Lat: -32.71 Lon: 116.06 Height: 267.0 m
Data from the previous 72 hours. | See also: Recent months at Dwellingup
Date/Time
WST
Temp
°C
App
Temp
°C
Dew
Point
°C
Rel
Hum
%
Delta-T
°C
Wind Press
QNH
hPa
Press
MSL
hPa
Rain since
9am
mm
Dir  Spd
km/h
Gust
km/h
Spd
kts
Gust
kts
28/12:30pm 14.0 11.5 6.4 60 3.7 E 9 13 5 7 1026.1 1026.0 0.0
28/12:00pm 14.4 12.0 7.0 61 3.6 ESE 9 15 5 8 1026.7 1026.6 0.0
28/11:30am 14.1 11.4 7.2 63 3.4 ESE 11 19 6 10 1027.3 1027.3 0.0
28/11:00am 13.5 11.3 7.7 68 2.9 ESE 9 15 5 8 1028.0 1027.9 0.0
28/10:30am 13.0 10.9 8.1 72 2.5 ESE 9 13 5 7 1028.3 1028.2 0.0
28/10:00am 10.7 8.5 7.8 82 1.4 ESE 9 15 5 8 1028.6 1028.5 0.0
28/09:30am 9.0 6.7 7.3 89 0.8 ESE 9 13 5 7 1028.5 1028.4 0.0
28/09:00am 7.5 5.0 6.4 93 0.5 ESE 9 15 5 8 1028.4 1028.3 0.0
28/08:30am 5.9 2.7 5.2 95 0.3 E 11 15 6 8 1028.2 1028.1 0.0
28/08:00am 3.8 0.2 2.9 94 0.4 E 11 15 6 8 1028.1 1028.0 0.0
28/07:30am 3.2 -0.9 2.3 94 0.4 E 13 17 7 9 1027.7 1027.6 0.0
28/07:00am 3.1 -1.4 2.2 94 0.4 E 15 19 8 10 1027.5 1027.4 0.0
28/06:30am 3.3 -1.2 2.4 94 0.4 E 15 20 8 11 1027.2 1027.2 0.0
28/06:00am 3.4 -1.1 2.4 93 0.4 ESE 15 20 8 11 1027.0 1027.0 0.0
28/05:30am 3.6 -0.4 2.7 94 0.4 E 13 17 7 9 1026.9 1026.9 0.0
28/05:00am 3.7 -0.7 2.7 93 0.4 ESE 15 17 8 9 1026.8 1026.7 0.0
28/04:30am 3.9 -0.5 2.9 93 0.4 ESE 15 19 8 10 1026.8 1026.7 0.0
28/04:00am 4.1 -0.2 3.1 93 0.4 E 15 19 8 10 1026.9 1026.9 0.0
28/03:30am 4.1 -0.2 3.1 93 0.4 ESE 15 19 8 10 1026.7 1026.6 0.0
28/03:00am 4.4 0.1 3.4 93 0.4 ESE 15 17 8 9 1026.7 1026.6 0.0
28/02:30am 4.6 0.4 3.6 93 0.4 ESE 15 19 8 10 1026.6 1026.5 0.0
28/02:00am 4.9 0.7 3.9 93 0.4 SE 15 17 8 9 1026.7 1026.6 0.0
28/01:30am 5.1 1.3 4.1 93 0.4 SE 13 15 7 8 1026.8 1026.7 0.0
28/01:00am 5.3 1.6 4.3 93 0.4 SE 13 15 7 8 1026.9 1026.9 0.0
28/12:30am 5.2 1.0 4.0 92 0.5 SE 15 19 8 10 1027.2 1027.2 0.0
28/12:00am 5.9 1.9 4.7 92 0.5 SE 15 17 8 9 1027.1 1027.1 0.0
 
Date/Time
WST
Temp
°C
App
Temp
°C
Dew
Point
°C
Rel
Hum
%
Delta-T
°C
Wind Press
QNH
hPa
Press
MSL
hPa
Rain since
9am
mm
Dir  Spd
km/h
Gust
km/h
Spd
kts
Gust
kts
27/11:30pm 5.8 1.7 4.6 92 0.5 SSE 15 19 8 10 1027.2 1027.2 0.0
27/11:00pm 6.0 2.4 4.8 92 0.5 SSE 13 17 7 9 1027.3 1027.3 0.0
27/10:30pm 6.4 2.8 5.2 92 0.5 SSE 13 15 7 8 1027.3 1027.3 0.0
27/10:00pm 6.7 2.8 5.3 91 0.6 SSE 15 17 8 9 1027.3 1027.3 0.0
27/09:30pm 6.7 3.1 5.2 90 0.7 SSE 13 15 7 8 1027.0 1027.0 0.0
27/09:00pm 7.3 3.9 5.8 90 0.7 SE 13 15 7 8 1026.9 1026.9 0.0
27/08:30pm 7.4 4.0 5.7 89 0.8 SE 13 15 7 8 1026.8 1026.7 0.0
27/08:00pm 7.8 4.4 5.9 88 0.9 SSE 13 15 7 8 1026.8 1026.7 0.0
27/07:30pm 8.3 5.0 6.3 87 0.9 SSE 13 13 7 7 1026.7 1026.6 0.0
27/07:00pm 9.0 5.8 6.8 86 1.0 SSE 13 15 7 8 1026.5 1026.4 0.0
27/06:30pm 9.8 7.0 7.1 83 1.3 SSE 11 13 6 7 1026.3 1026.2 0.0
27/06:00pm 10.6 7.9 7.5 81 1.5 SSE 11 15 6 8 1026.0 1025.9 0.0
27/05:30pm 11.4 8.3 7.1 75 2.1 SSE 13 15 7 8 1025.7 1025.6 0.0
27/05:00pm 13.3 11.1 7.7 69 2.8 SSE 9 13 5 7 1025.6 1025.5 0.0
27/04:30pm 13.5 11.1 6.8 64 3.3 SSE 9 11 5 6 1025.5 1025.4 0.0
27/04:00pm 15.1 12.8 5.9 54 4.4 ESE 7 9 4 5 1025.3 1025.2 0.0
27/03:30pm 14.5 11.9 6.3 58 4.0 S 9 15 5 8 1025.4 1025.3 0.0
27/03:00pm 15.4 12.9 6.4 55 4.4 ESE 9 13 5 7 1025.2 1025.1 0.0
27/02:30pm 15.5 12.1 5.7 52 4.8 SSE 13 19 7 10 1025.4 1025.3 0.0
27/02:00pm 15.1 12.5 6.1 55 4.4 SSE 9 28 5 15 1025.5 1025.4 0.0
27/01:30pm 15.8 13.0 6.8 55 4.5 SE 11 19 6 10 1025.5 1025.4 0.0
27/01:00pm 14.9 11.6 6.2 56 4.2 E 13 19 7 10 1025.7 1025.6 0.0
27/12:30pm 13.7 10.8 6.3 61 3.6 ESE 11 19 6 10 1025.8 1025.7 0.0
27/12:00pm 14.2 11.2 5.8 57 4.0 SE 11 19 6 10 1026.2 1026.1 0.0
27/11:30am 14.3 11.2 7.4 63 3.4 SSE 13 20 7 11 1026.6 1026.5 0.0
27/11:00am 12.7 9.5 6.7 67 2.9 SE 13 20 7 11 1026.7 1026.6 0.0
27/10:30am 12.0 8.9 7.3 73 2.3 SE 13 20 7 11 1026.9 1026.9 0.0
27/10:00am 10.4 7.1 6.5 77 1.8 ESE 13 19 7 10 1027.1 1027.1 0.0
27/09:30am 9.7 7.2 6.6 81 1.5 SE 9 15 5 8 1026.9 1026.9 0.0
27/09:00am 8.7 6.3 7.0 89 0.8 SE 9 17 5 9 1026.7 1026.6 0.2
27/08:30am 8.0 5.6 7.2 95 0.4 SE 9 13 5 7 1026.3 1026.2 0.2
27/08:00am 6.0 2.4 5.1 94 0.4 SE 13 15 7 8 1026.0 1025.9 0.2
27/07:30am 5.5 1.8 4.5 93 0.4 SE 13 15 7 8 1025.7 1025.6 0.2
27/07:00am 5.9 2.3 4.9 93 0.4 SE 13 17 7 9 1025.2 1025.1 0.2
27/06:30am 6.2 2.6 5.0 92 0.5 SE 13 17 7 9 1024.9 1024.8 0.2
27/06:00am 6.8 3.3 5.6 92 0.5 SE 13 17 7 9 1024.8 1024.7 0.2
27/05:30am 7.5 4.2 6.4 93 0.5 SE 13 19 7 10 1024.7 1024.6 0.2
27/05:00am 8.0 4.9 7.1 94 0.4 SE 13 19 7 10 1024.6 1024.5 0.2
27/04:30am 8.0 5.2 7.1 94 0.4 SE 11 15 6 8 1024.4 1024.3 0.2
27/04:00am 7.5 4.2 6.6 94 0.4 SE 13 17 7 9 1024.3 1024.2 0.2
27/03:30am 6.7 3.3 5.8 94 0.4 SE 13 19 7 10 1024.3 1024.2 0.2
27/03:00am 6.4 2.9 5.4 93 0.4 SSE 13 17 7 9 1024.3 1024.2 0.2
27/02:30am 6.5 3.0 5.5 93 0.4 SE 13 15 7 8 1024.4 1024.3 0.2
27/02:00am 6.8 3.4 5.7 93 0.5 SE 13 15 7 8 1024.3 1024.2 0.2
27/01:30am 7.5 4.2 6.4 93 0.5 SSE 13 17 7 9 1024.3 1024.2 0.2
27/01:00am 7.8 4.6 6.7 93 0.5 ESE 13 19 7 10 1024.2 1024.1 0.2
27/12:30am 8.2 5.1 7.1 93 0.5 ESE 13 15 7 8 1024.1 1024.0 0.2
27/12:00am 8.8 5.4 7.7 93 0.5 SE 15 19 8 10 1024.0 1023.9 0.2
 
Date/Time
WST
Temp
°C
App
Temp
°C
Dew
Point
°C
Rel
Hum
%
Delta-T
°C
Wind Press
QNH
hPa
Press
MSL
hPa
Rain since
9am
mm
Dir  Spd
km/h
Gust
km/h
Spd
kts
Gust
kts
26/11:30pm 8.9 5.9 7.8 93 0.5 SSE 13 20 7 11 1024.0 1023.9 0.2
26/11:00pm 8.8 5.4 7.7 93 0.5 SE 15 19 8 10 1024.0 1023.9 0.0
26/10:30pm 8.4 5.3 7.2 92 0.6 SSE 13 17 7 9 1024.0 1023.9 0.0
26/10:00pm 8.9 5.1 7.7 92 0.6 SSE 17 24 9 13 1023.9 1023.8 0.0
26/09:30pm 8.9 5.9 7.5 91 0.7 SSE 13 19 7 10 1023.6 1023.4 0.0
26/09:00pm 9.6 6.3 8.2 91 0.7 S 15 20 8 11 1023.6 1023.4 0.0
26/08:30pm 9.9 7.1 8.5 91 0.7 S 13 19 7 10 1023.3 1023.2 0.0
26/08:00pm 10.0 7.2 8.4 90 0.8 SSW 13 17 7 9 1022.9 1022.8 0.0
26/07:30pm 10.2 7.4 8.6 90 0.8 SSW 13 19 7 10 1022.5 1022.4 0.0
26/07:00pm 10.1 7.3 8.4 89 0.8 SSW 13 19 7 10 1022.2 1022.1 0.0
26/06:30pm 10.6 7.8 8.4 86 1.1 SW 13 19 7 10 1021.9 1021.8 0.0
26/06:00pm 11.5 8.7 8.7 83 1.4 SW 13 17 7 9 1021.5 1021.4 0.0
26/05:30pm 12.9 10.0 8.2 73 2.4 SW 13 17 7 9 1021.2 1021.1 0.0
26/05:00pm 13.6 10.7 8.2 70 2.7 SW 13 19 7 10 1021.1 1021.0 0.0
26/04:30pm 14.5 12.1 8.5 67 3.1 SW 11 17 6 9 1021.0 1020.9 0.0
26/04:00pm 15.6 13.4 7.9 60 3.9 SW 9 15 5 8 1020.8 1020.7 0.0
26/03:30pm 15.7 13.1 7.7 59 4.1 SW 11 15 6 8 1020.8 1020.7 0.0
26/03:00pm 15.3 11.8 7.3 59 4.0 SSW 15 20 8 11 1020.8 1020.7 0.0
26/02:30pm 16.4 13.8 7.6 56 4.5 SW 11 17 6 9 1020.7 1020.6 0.0
26/02:00pm 15.3 12.5 6.8 57 4.2 SSW 11 19 6 10 1020.7 1020.6 0.0
26/01:30pm 16.4 13.3 7.1 54 4.7 SW 13 26 7 14 1020.8 1020.7 0.0
26/01:00pm 15.2 11.9 6.5 56 4.3 SW 13 20 7 11 1020.9 1020.8 0.0
26/12:30pm 15.2 12.0 7.0 58 4.1 SSW 13 24 7 13 1021.1 1021.0 0.0
26/12:00pm 14.6 10.8 7.6 63 3.5 SSW 17 28 9 15 1021.5 1021.4 0.0
26/11:30am 14.8 11.2 8.3 65 3.3 SSW 17 28 9 15 1021.7 1021.6 0.0
26/11:00am 13.7 10.8 8.1 69 2.8 SSW 13 24 7 13 1021.9 1021.8 0.0
26/10:30am 13.9 11.1 8.7 71 2.7 S 13 20 7 11 1021.8 1021.7 0.0
26/10:00am 13.8 11.2 9.5 75 2.2 S 13 20 7 11 1021.7 1021.6 0.0
26/09:30am 13.1 11.0 9.9 81 1.7 S 11 17 6 9 1021.5 1021.4 0.0
26/09:00am 12.8 11.2 10.3 85 1.3 S 9 17 5 9 1021.4 1021.3 6.6
26/08:30am 12.2 10.5 11.1 93 0.6 S 11 15 6 8 1021.0 1020.9 6.6
26/08:00am 11.1 8.7 10.0 93 0.6 S 13 15 7 8 1020.9 1020.8 6.6
26/07:30am 10.8 8.7 9.6 92 0.6 S 11 17 6 9 1020.6 1020.5 6.6
26/07:00am 11.2 9.1 9.8 91 0.7 S 11 17 6 9 1020.2 1020.0 6.6
26/06:30am 12.0 9.7 10.4 90 0.8 S 13 20 7 11 1020.0 1019.8 6.6
26/06:00am 12.5 10.4 11.1 91 0.7 S 13 19 7 10 1019.7 1019.5 6.6
26/05:30am 13.0 11.1 11.9 93 0.6 S 13 19 7 10 1019.4 1019.3 6.6
26/05:00am 13.2 11.4 12.1 93 0.6 SSW 13 20 7 11 1019.2 1019.1 6.6
26/04:30am 13.7 12.0 12.6 93 0.6 SSW 13 20 7 11 1019.0 1018.9 5.8
26/04:00am 14.1 12.2 13.0 93 0.6 SW 15 19 8 10 1018.8 1018.7 4.6
26/03:30am 14.1 12.5 12.8 92 0.7 W 13 20 7 11 1018.4 1018.3 2.6
26/03:00am 13.9 12.2 12.5 91 0.8 WNW 13 24 7 13 1018.5 1018.4 2.0
26/02:30am 13.7 12.2 11.9 89 1.0 WSW 11 17 6 9 1018.4 1018.3 0.2
26/02:00am 13.0 10.9 11.2 89 1.0 NW 13 19 7 10 1018.3 1018.2 0.2
26/01:30am 12.4 10.5 10.6 89 0.9 NW 11 17 6 9 1018.3 1018.2 0.2
26/01:00am 12.0 9.6 10.1 88 1.0 NW 13 19 7 10 1018.6 1018.5 0.2
26/12:30am 12.5 10.5 10.0 85 1.3 NW 11 17 6 9 1018.8 1018.7 0.2
26/12:00am 13.2 11.2 10.2 82 1.6 WNW 11 15 6 8 1018.8 1018.7 0.2
 
Date/Time
WST
Temp
°C
App
Temp
°C
Dew
Point
°C
Rel
Hum
%
Delta-T
°C
Wind Press
QNH
hPa
Press
MSL
hPa
Rain since
9am
mm
Dir  Spd
km/h
Gust
km/h
Spd
kts
Gust
kts
25/11:30pm 14.0 11.3 10.2 78 2.0 W 15 26 8 14 1019.2 1019.1 0.2
25/11:00pm 13.3 10.9 9.9 80 1.8 WNW 13 20 7 11 1019.2 1019.1 0.2
25/10:30pm 12.7 9.8 9.5 81 1.6 WNW 15 24 8 13 1019.4 1019.3 0.2
25/10:00pm 13.1 10.6 9.7 80 1.8 WNW 13 22 7 12 1019.5 1019.4 0.2
25/09:30pm 13.9 11.2 10.5 80 1.8 WNW 15 26 8 14 1019.7 1019.5 0.2
25/09:00pm 14.1 11.6 10.9 81 1.7 W 15 26 8 14 1019.7 1019.5 0.2
25/08:30pm 14.2 12.2 11.4 83 1.5 WNW 13 20 7 11 1019.5 1019.4 0.0
25/08:00pm 14.5 12.6 11.7 83 1.5 W 13 22 7 12 1019.5 1019.4 0.0
25/07:30pm 14.4 13.2 11.7 84 1.5 W 9 17 5 9 1019.5 1019.4 0.0
25/07:00pm 14.3 12.7 11.5 83 1.5 W 11 19 6 10 1019.5 1019.4 0.0
25/06:30pm 15.1 13.4 11.1 77 2.2 NW 11 19 6 10 1019.2 1019.1 0.0
25/06:00pm 15.4 13.7 11.2 76 2.3 NW 11 19 6 10 1019.2 1019.1 0.0
25/05:30pm 16.1 14.3 10.8 71 2.9 NW 11 19 6 10 1019.2 1019.1 0.0
25/05:00pm 16.1 13.8 10.4 69 3.0 NW 13 22 7 12 1019.1 1019.0 0.0
25/04:30pm 16.8 14.0 10.0 64 3.6 NW 15 32 8 17 1019.1 1019.0 0.0
25/04:00pm 17.5 14.3 9.9 61 4.1 NW 17 30 9 16 1019.1 1019.0 0.0
25/03:30pm 18.4 15.1 9.7 57 4.7 NW 17 28 9 15 1019.0 1018.9 0.0
25/03:00pm 18.4 15.8 9.5 56 4.7 NW 13 22 7 12 1019.0 1018.9 0.0
25/02:30pm 19.0 16.2 10.0 56 4.9 NW 15 24 8 13 1019.0 1018.9 0.0
25/02:00pm 18.8 15.7 8.7 52 5.3 NW 15 28 8 15 1019.2 1019.1 0.0
25/01:30pm 18.9 15.5 9.1 53 5.2 NNW 17 26 9 14 1019.5 1019.4 0.0
25/01:00pm 18.7 15.2 8.7 52 5.3 NNW 17 30 9 16 1019.8 1019.6 0.0

Other Formats:

Comma delimited format used in spreadsheet applications
http://www.bom.gov.au/fwo/IDW60801/IDW60801.94620.axf

JavaScript Object Notation format (JSON) in row-major order
http://www.bom.gov.au/fwo/IDW60801/IDW60801.94620.json